Time,TemperatureF,DewpointF,PressureIn,WindDirection,WindDirectionDegrees,WindSpeedMPH,WindSpeedGustMPH,Humidity,HourlyPrecipIn,Conditions,Clouds,dailyrainin,SoftwareType,DateUTC
2013-07-24 00:01:00,69.0,63.0,29.91,WSW,248,1.0,9.0,82,0.00,,,0.02,,2013-07-24 04:01:00,
2013-07-24 00:22:00,69.0,63.0,29.92,West,269,4.0,12.0,82,0.00,,,0.02,,2013-07-24 04:22:00,
2013-07-24 00:32:00,69.0,64.0,29.92,West,281,4.0,13.0,83,0.00,,,0.02,,2013-07-24 04:32:00,
2013-07-24 00:52:00,69.0,64.0,29.91,West,277,2.0,10.0,83,0.00,,,0.02,,2013-07-24 04:52:00,
2013-07-24 01:02:00,69.0,64.0,29.91,SSW,196,3.0,9.0,84,0.00,,,0.02,,2013-07-24 05:02:00,
2013-07-24 01:33:00,68.0,63.0,29.91,West,281,3.0,7.0,85,0.00,,,0.02,,2013-07-24 05:33:00,
2013-07-24 01:43:00,68.0,63.0,29.92,West,276,3.0,10.0,85,0.00,,,0.02,,2013-07-24 05:43:00,
2013-07-24 01:52:00,68.0,63.0,29.92,West,276,3.0,10.0,85,0.00,,,0.02,,2013-07-24 05:52:00,
2013-07-24 02:01:00,68.0,63.0,29.92,West,274,4.0,10.0,85,0.00,,,0.02,,2013-07-24 06:01:00,
2013-07-24 02:12:00,68.0,63.0,29.91,WNW,290,3.0,11.0,85,0.00,,,0.01,,2013-07-24 06:12:00,
2013-07-24 02:34:00,68.0,64.0,29.91,WNW,288,3.0,9.0,86,0.00,,,0.01,,2013-07-24 06:34:00,
2013-07-24 02:43:00,68.0,64.0,29.90,West,280,4.0,9.0,86,0.00,,,0.00,,2013-07-24 06:43:00,
2013-07-24 02:53:00,68.0,63.0,29.90,WSW,256,3.0,10.0,85,0.00,,,0.00,,2013-07-24 06:53:00,
2013-07-24 03:02:00,68.0,63.0,29.90,WSW,256,3.0,10.0,85,0.00,,,0.00,,2013-07-24 07:02:00,
2013-07-24 03:12:00,68.0,63.0,29.89,WNW,284,4.0,12.0,85,0.00,,,0.00,,2013-07-24 07:12:00,
2013-07-24 03:22:00,68.0,63.0,29.88,WNW,282,3.0,13.0,85,0.00,,,0.00,,2013-07-24 07:22:00,
2013-07-24 03:32:00,68.0,63.0,29.88,WNW,282,3.0,13.0,85,0.00,,,0.00,,2013-07-24 07:32:00,
2013-07-24 03:43:00,68.0,63.0,29.88,WNW,282,3.0,13.0,85,0.00,,,0.00,,2013-07-24 07:43:00,
2013-07-24 03:52:00,67.0,63.0,29.88,WNW,282,3.0,10.0,86,0.00,,,0.00,,2013-07-24 07:52:00,
2013-07-24 04:02:00,67.0,63.0,29.88,WNW,282,3.0,10.0,86,0.00,,,0.00,,2013-07-24 08:02:00,
2013-07-24 04:12:00,68.0,64.0,29.87,West,277,4.0,13.0,86,0.00,,,0.00,,2013-07-24 08:12:00,
2013-07-24 04:22:00,68.0,64.0,29.87,West,263,3.0,16.0,86,0.00,,,0.00,,2013-07-24 08:22:00,
2013-07-24 04:32:00,68.0,64.0,29.87,West,263,3.0,16.0,86,0.00,,,0.00,,2013-07-24 08:32:00,
2013-07-24 04:43:00,68.0,64.0,29.87,West,266,3.0,10.0,86,0.00,,,0.00,,2013-07-24 08:43:00,
2013-07-24 04:52:00,67.0,63.0,29.87,West,272,5.0,14.0,87,0.00,,,0.00,,2013-07-24 08:52:00,
2013-07-24 05:02:00,67.0,63.0,29.87,West,272,5.0,14.0,87,0.00,,,0.00,,2013-07-24 09:02:00,
2013-07-24 05:12:00,67.0,64.0,29.87,West,277,7.0,15.0,89,0.00,,,0.00,,2013-07-24 09:12:00,
2013-07-24 05:22:00,67.0,64.0,29.87,West,277,7.0,15.0,89,0.00,,,0.00,,2013-07-24 09:22:00,
2013-07-24 05:32:00,67.0,64.0,29.87,West,281,7.0,16.0,90,0.00,,,0.00,,2013-07-24 09:32:00,
2013-07-24 05:43:00,66.0,63.0,29.87,West,278,7.0,14.0,90,0.00,,,0.00,,2013-07-24 09:43:00,
2013-07-24 05:53:00,66.0,63.0,29.87,West,278,7.0,14.0,90,0.00,,,0.00,,2013-07-24 09:53:00,
2013-07-24 06:12:00,67.0,64.0,29.88,WNW,290,7.0,20.0,91,0.00,,,0.00,,2013-07-24 10:12:00,
2013-07-24 06:22:00,67.0,64.0,29.88,WNW,290,7.0,20.0,91,0.00,,,0.00,,2013-07-24 10:22:00,
2013-07-24 06:33:00,66.0,64.0,29.89,West,277,9.0,18.0,92,0.00,,,0.00,,2013-07-24 10:33:00,
2013-07-24 07:02:00,66.0,64.0,29.89,WNW,283,9.0,21.0,92,0.00,,,0.00,,2013-07-24 11:02:00,
2013-07-24 07:12:00,66.0,64.0,29.89,West,277,5.0,15.0,92,0.00,,,0.00,,2013-07-24 11:12:00,
2013-07-24 07:32:00,66.0,63.0,29.89,WNW,282,7.0,14.0,90,0.00,,,0.00,,2013-07-24 11:32:00,
2013-07-24 07:43:00,66.0,61.0,29.89,West,275,8.0,18.0,84,0.00,,,0.00,,2013-07-24 11:43:00,
2013-07-24 07:52:00,66.0,61.0,29.89,West,275,8.0,18.0,84,0.00,,,0.00,,2013-07-24 11:52:00,
2013-07-24 08:02:00,67.0,59.0,29.89,West,268,4.0,13.0,76,0.00,,,0.00,,2013-07-24 12:02:00,
2013-07-24 08:22:00,65.0,60.0,29.90,West,274,11.0,23.0,83,0.00,,,0.00,,2013-07-24 12:22:00,
2013-07-24 08:32:00,65.0,58.0,29.90,West,278,7.0,23.0,78,0.00,,,0.00,,2013-07-24 12:32:00,
2013-07-24 08:42:00,67.0,56.0,29.90,West,269,5.0,19.0,67,0.00,,,0.00,,2013-07-24 12:42:00,
2013-07-24 09:02:00,67.0,56.0,29.91,West,275,6.0,13.0,69,0.00,,,0.00,,2013-07-24 13:02:00,
2013-07-24 09:22:00,67.0,59.0,29.91,WNW,282,2.0,13.0,75,0.00,,,0.00,,2013-07-24 13:22:00,
2013-07-24 09:32:00,68.0,60.0,29.92,WSW,254,4.0,13.0,75,0.00,,,0.00,,2013-07-24 13:32:00,
2013-07-24 09:43:00,68.0,59.0,29.92,SSW,206,1.0,6.0,73,0.00,,,0.00,,2013-07-24 13:43:00,
2013-07-24 09:53:00,68.0,59.0,29.92,SSW,206,1.0,6.0,73,0.00,,,0.00,,2013-07-24 13:53:00,
2013-07-24 10:02:00,67.0,60.0,29.93,NW,308,2.0,8.0,78,0.00,,,0.00,,2013-07-24 14:02:00,
2013-07-24 10:12:00,66.0,60.0,29.93,NW,311,3.0,11.0,80,0.00,,,0.00,,2013-07-24 14:12:00,
2013-07-24 10:22:00,66.0,61.0,29.93,WNW,286,3.0,15.0,83,0.00,,,0.00,,2013-07-24 14:22:00,
2013-07-24 10:32:00,66.0,61.0,29.93,WNW,286,3.0,15.0,83,0.00,,,0.00,,2013-07-24 14:32:00,
2013-07-24 10:43:00,68.0,62.0,29.93,NW,325,4.0,11.0,81,0.00,,,0.00,,2013-07-24 14:43:00,
2013-07-24 10:55:00,68.0,62.0,29.93,NW,315,3.0,9.0,80,0.00,,,0.00,,2013-07-24 14:55:00,
2013-07-24 11:02:00,68.0,62.0,29.93,NW,315,3.0,9.0,80,0.00,,,0.00,,2013-07-24 15:02:00,
2013-07-24 11:12:00,67.0,61.0,29.94,West,274,3.0,9.0,82,0.00,,,0.00,,2013-07-24 15:12:00,
2013-07-24 11:22:00,67.0,62.0,29.94,NW,305,1.0,8.0,84,0.00,,,0.00,,2013-07-24 15:22:00,
2013-07-24 11:33:00,67.0,62.0,29.94,NW,305,1.0,8.0,84,0.00,,,0.00,,2013-07-24 15:33:00,
2013-07-24 11:43:00,68.0,63.0,29.94,North,0,0.0,5.0,83,0.00,,,0.00,,2013-07-24 15:43:00,
2013-07-24 11:52:00,70.0,64.0,29.94,North,0,0.0,4.0,82,0.00,,,0.00,,2013-07-24 15:52:00,
2013-07-24 12:02:00,70.0,64.0,29.94,North,0,0.0,4.0,82,0.00,,,0.00,,2013-07-24 16:02:00,
2013-07-24 12:12:00,71.0,64.0,29.93,WNW,300,2.0,6.0,78,0.00,,,0.00,,2013-07-24 16:12:00,
2013-07-24 12:22:00,70.0,64.0,29.94,North,0,0.0,5.0,80,0.00,,,0.00,,2013-07-24 16:22:00,
2013-07-24 12:33:00,70.0,64.0,29.94,North,0,0.0,5.0,80,0.00,,,0.00,,2013-07-24 16:33:00,
2013-07-24 12:43:00,71.0,64.0,29.95,WNW,291,1.0,7.0,79,0.00,,,0.00,,2013-07-24 16:43:00,
2013-07-24 12:53:00,73.0,65.0,29.94,North,0,0.0,6.0,75,0.00,,,0.00,,2013-07-24 16:53:00,
2013-07-24 13:02:00,73.0,65.0,29.94,North,0,0.0,6.0,75,0.00,,,0.00,,2013-07-24 17:02:00,
2013-07-24 13:12:00,72.0,64.0,29.94,NW,305,2.0,5.0,77,0.00,,,0.00,,2013-07-24 17:12:00,
2013-07-24 13:22:00,71.0,63.0,29.94,North,0,0.0,8.0,76,0.00,,,0.00,,2013-07-24 17:22:00,
2013-07-24 13:33:00,71.0,63.0,29.94,North,0,0.0,8.0,76,0.00,,,0.00,,2013-07-24 17:33:00,
2013-07-24 13:43:00,71.0,63.0,29.94,North,0,0.0,6.0,77,0.00,,,0.00,,2013-07-24 17:43:00,
2013-07-24 13:53:00,70.0,64.0,29.94,South,172,1.0,7.0,81,0.00,,,0.00,,2013-07-24 17:53:00,
2013-07-24 14:02:00,70.0,64.0,29.94,South,172,1.0,7.0,81,0.00,,,0.00,,2013-07-24 18:02:00,
2013-07-24 14:12:00,69.0,63.0,29.94,West,281,2.0,8.0,81,0.00,,,0.00,,2013-07-24 18:12:00,
2013-07-24 14:22:00,72.0,63.0,29.93,West,260,1.0,6.0,74,0.00,,,0.00,,2013-07-24 18:22:00,
2013-07-24 14:33:00,72.0,63.0,29.93,West,260,1.0,6.0,74,0.00,,,0.00,,2013-07-24 18:33:00,
2013-07-24 14:43:00,74.0,61.0,29.93,West,276,1.0,5.0,64,0.00,,,0.00,,2013-07-24 18:43:00,
2013-07-24 14:52:00,74.0,61.0,29.93,West,276,1.0,5.0,64,0.00,,,0.00,,2013-07-24 18:52:00,
2013-07-24 15:02:00,73.0,61.0,29.93,West,267,4.0,7.0,65,0.00,,,0.00,,2013-07-24 19:02:00,
2013-07-24 15:12:00,74.0,64.0,29.93,West,277,1.0,8.0,70,0.00,,,0.00,,2013-07-24 19:12:00,
2013-07-24 15:22:00,74.0,64.0,29.93,West,277,1.0,8.0,70,0.00,,,0.00,,2013-07-24 19:22:00,
2013-07-24 15:32:00,75.0,62.0,29.93,WNW,289,1.0,8.0,63,0.00,,,0.00,,2013-07-24 19:32:00,
2013-07-24 15:43:00,75.0,61.0,29.93,West,261,1.0,6.0,61,0.00,,,0.00,,2013-07-24 19:43:00,
2013-07-24 15:53:00,75.0,61.0,29.93,West,278,3.0,8.0,62,0.00,,,0.00,,2013-07-24 19:53:00,
2013-07-24 16:02:00,75.0,61.0,29.93,West,278,3.0,8.0,62,0.00,,,0.00,,2013-07-24 20:02:00,
2013-07-24 16:13:00,75.0,62.0,29.93,West,265,2.0,7.0,63,0.00,,,0.00,,2013-07-24 20:13:00,
2013-07-24 16:23:00,74.0,61.0,29.92,NE,55,2.0,6.0,63,0.00,,,0.00,,2013-07-24 20:23:00,
2013-07-24 16:32:00,74.0,61.0,29.92,NE,55,2.0,6.0,63,0.00,,,0.00,,2013-07-24 20:32:00,
2013-07-24 16:43:00,75.0,62.0,29.92,WSW,253,3.0,10.0,65,0.00,,,0.00,,2013-07-24 20:43:00,
2013-07-24 16:52:00,75.0,62.0,29.92,NNW,334,2.0,9.0,64,0.00,,,0.00,,2013-07-24 20:52:00,
2013-07-24 17:03:00,75.0,62.0,29.92,NNW,334,2.0,9.0,64,0.00,,,0.00,,2013-07-24 21:03:00,
2013-07-24 17:12:00,74.0,61.0,29.92,West,281,2.0,7.0,64,0.00,,,0.00,,2013-07-24 21:12:00,
2013-07-24 17:32:00,73.0,62.0,29.92,North,0,0.0,8.0,69,0.00,,,0.00,,2013-07-24 21:32:00,
2013-07-24 17:44:00,74.0,61.0,29.92,WNW,285,1.0,6.0,65,0.00,,,0.00,,2013-07-24 21:44:00,
2013-07-24 17:52:00,74.0,61.0,29.92,WNW,285,1.0,6.0,65,0.00,,,0.00,,2013-07-24 21:52:00,
2013-07-24 18:02:00,73.0,60.0,29.92,West,279,1.0,7.0,64,0.00,,,0.00,,2013-07-24 22:02:00,
2013-07-24 18:12:00,73.0,60.0,29.92,WNW,288,2.0,8.0,63,0.00,,,0.00,,2013-07-24 22:12:00,
2013-07-24 18:32:00,73.0,61.0,29.92,WSW,257,2.0,9.0,66,0.00,,,0.00,,2013-07-24 22:32:00,
2013-07-24 18:43:00,74.0,62.0,29.92,West,272,3.0,7.0,66,0.00,,,0.00,,2013-07-24 22:43:00,
2013-07-24 18:53:00,74.0,62.0,29.92,West,272,3.0,7.0,66,0.00,,,0.00,,2013-07-24 22:53:00,
2013-07-24 19:02:00,74.0,62.0,29.92,West,272,3.0,7.0,66,0.00,,,0.00,,2013-07-24 23:02:00,
2013-07-24 19:12:00,72.0,62.0,29.92,NW,304,2.0,6.0,70,0.00,,,0.00,,2013-07-24 23:12:00,
2013-07-24 19:32:00,71.0,62.0,29.92,North,0,0.0,4.0,73,0.00,,,0.00,,2013-07-24 23:32:00,
2013-07-24 19:43:00,71.0,62.0,29.92,North,0,0.0,5.0,73,0.00,,,0.00,,2013-07-24 23:43:00,
2013-07-24 19:52:00,71.0,62.0,29.92,North,0,0.0,4.0,74,0.00,,,0.00,,2013-07-24 23:52:00,
2013-07-24 20:02:00,71.0,62.0,29.92,North,0,0.0,4.0,74,0.00,,,0.00,,2013-07-25 00:02:00,
2013-07-24 20:43:00,69.0,62.0,29.94,WNW,290,2.0,9.0,78,0.00,,,0.00,,2013-07-25 00:43:00,
2013-07-24 21:03:00,68.0,61.0,29.95,NW,306,2.0,8.0,79,0.00,,,0.00,,2013-07-25 01:03:00,
2013-07-24 21:12:00,68.0,61.0,29.95,NW,322,3.0,10.0,79,0.00,,,0.00,,2013-07-25 01:12:00,
2013-07-24 21:32:00,67.0,60.0,29.96,NW,323,3.0,9.0,79,0.00,,,0.00,,2013-07-25 01:32:00,
2013-07-24 22:02:00,67.0,60.0,29.97,North,0,0.0,6.0,77,0.00,,,0.00,,2013-07-25 02:02:00,
2013-07-24 22:22:00,67.0,60.0,29.97,North,0,0.0,6.0,77,0.00,,,0.00,,2013-07-25 02:22:00,
2013-07-24 23:02:00,66.0,59.0,29.99,North,0,0.0,3.0,79,0.00,,,0.00,,2013-07-25 03:02:00,
2013-07-24 23:24:00,66.0,59.0,30.00,North,0,0.0,4.0,79,0.00,,,0.00,,2013-07-25 03:24:00,